Time;durP1;ratioP1;P1;durP2;ratioP2;P2;SDS_P1;SDS_P2;PMS_P1;PMS_P2;Temp;Humidity;BMP_temperature;BMP_pressure;BME280_temperature;BME280_humidity;BME280_pressure;Samples;Min_cycle;Max_cycle;Signal;HPM_P1;HPM_P2
2022/03/02 00:00:13;;;;;;;11.40;4.75;;;;;;;8.98;100.00;100100.91;6167879;23;20024;-84
2022/03/02 00:02:39;;;;;;;17.15;4.68;;;;;;;8.95;100.00;100098.63;6171941;23;20013;-85
2022/03/02 00:05:06;;;;;;;10.93;3.90;;;;;;;8.78;100.00;100089.06;6201915;23;20013;-85
2022/03/02 00:07:35;;;;;;;14.63;5.05;;;;;;;9.28;100.00;100111.84;6198313;23;20292;-83
2022/03/02 00:10:03;;;;;;;15.55;5.28;;;;;;;8.76;100.00;100097.06;6149345;23;20352;-87
2022/03/02 00:12:33;;;;;;;16.77;5.45;;;;;;;8.65;100.00;100079.84;6152406;23;20017;-85
2022/03/02 00:14:59;;;;;;;16.17;5.13;;;;;;;8.24;100.00;100056.84;6147828;23;20012;-89
2022/03/02 00:17:25;;;;;;;16.90;5.15;;;;;;;8.73;100.00;100076.44;6146036;23;20043;-85
2022/03/02 00:19:51;;;;;;;16.25;5.32;;;;;;;8.84;100.00;100099.72;6194774;23;20013;-86
2022/03/02 00:22:19;;;;;;;11.80;5.10;;;;;;;8.96;100.00;100097.63;6166342;23;20009;-86
2022/03/02 00:24:50;;;;;;;11.70;5.10;;;;;;;8.65;100.00;100077.22;6168147;23;20040;-84
2022/03/02 00:27:23;;;;;;;15.10;5.75;;;;;;;8.32;100.00;100043.00;6167007;23;20021;-86
2022/03/02 00:29:49;;;;;;;12.35;4.90;;;;;;;8.85;100.00;100064.72;6168247;23;20005;-86
2022/03/02 00:32:15;;;;;;;18.70;5.30;;;;;;;8.52;100.00;100066.34;6196005;23;20384;-85
2022/03/02 00:34:42;;;;;;;15.13;4.65;;;;;;;8.64;100.00;100057.25;6167490;23;20064;-86
2022/03/02 00:37:08;;;;;;;7.68;4.57;;;;;;;8.74;100.00;100045.84;6166302;23;20411;-83
2022/03/02 00:39:35;;;;;;;14.27;5.63;;;;;;;8.36;100.00;100070.50;6194690;23;20016;-84
2022/03/02 00:42:02;;;;;;;11.60;5.43;;;;;;;8.94;100.00;100083.88;6195284;23;20025;-84
2022/03/02 00:44:45;;;;;;;10.65;4.78;;;;;;;8.84;100.00;100077.94;6168315;23;20159;-87
2022/03/02 00:47:14;;;;;;;8.52;5.63;;;;;;;8.34;100.00;100030.59;6142512;23;20024;-86
2022/03/02 00:49:40;;;;;;;18.65;5.40;;;;;;;8.81;100.00;100042.44;6140419;23;20040;-84
2022/03/02 00:52:09;;;;;;;10.35;5.60;;;;;;;8.69;100.00;100065.47;6140416;23;20091;-86
2022/03/02 00:54:34;;;;;;;12.95;5.32;;;;;;;8.59;100.00;100049.03;6142074;23;20406;-87
2022/03/02 00:57:00;;;;;;;12.88;5.38;;;;;;;8.77;100.00;100066.47;6165335;23;20096;-86
2022/03/02 00:59:28;;;;;;;19.55;5.47;;;;;;;8.26;100.00;100039.19;6142453;23;20016;-85
2022/03/02 01:01:54;;;;;;;11.95;5.90;;;;;;;8.32;100.00;100022.06;6139712;23;20005;-88
2022/03/02 01:04:20;;;;;;;12.93;5.75;;;;;;;8.40;100.00;100023.91;6141473;23;20016;-86
2022/03/02 01:06:46;;;;;;;20.08;6.60;;;;;;;8.70;100.00;100038.31;6140175;23;20087;-84
2022/03/02 01:09:11;;;;;;;14.38;6.00;;;;;;;8.51;100.00;100021.03;6164465;23;20009;-82
2022/03/02 01:11:37;;;;;;;10.23;6.30;;;;;;;8.65;100.00;100045.00;6188992;23;20024;-84
2022/03/02 01:14:03;;;;;;;22.17;7.03;;;;;;;8.57;100.00;100037.91;6163220;23;20009;-82
2022/03/02 01:16:29;;;;;;;15.38;6.53;;;;;;;8.42;100.00;100020.16;6188737;23;20443;-85
2022/03/02 01:18:55;;;;;;;14.30;6.50;;;;;;;8.51;100.00;100031.50;6188526;23;20009;-81
2022/03/02 01:21:24;;;;;;;18.75;7.15;;;;;;;8.80;100.00;100019.03;6194981;23;20453;-85
2022/03/02 01:23:53;;;;;;;20.45;8.05;;;;;;;8.34;100.00;100008.81;6169812;23;20060;-83
2022/03/02 01:26:21;;;;;;;12.82;7.30;;;;;;;8.43;100.00;100013.13;6166124;23;20436;-85
2022/03/02 01:28:48;;;;;;;20.08;7.75;;;;;;;7.93;100.00;100014.66;6190112;23;20076;-85
2022/03/02 01:31:14;;;;;;;19.23;8.52;;;;;;;8.54;100.00;100019.91;6190524;23;20009;-85
2022/03/02 01:33:40;;;;;;;18.35;8.13;;;;;;;8.54;100.00;99993.75;6165104;23;20013;-84
2022/03/02 01:36:06;;;;;;;20.98;7.82;;;;;;;8.51;100.00;99981.00;6163848;23;20140;-84
2022/03/02 01:38:31;;;;;;;22.42;8.90;;;;;;;8.52;100.00;99974.78;6188434;23;20013;-85
2022/03/02 01:40:57;;;;;;;17.40;8.43;;;;;;;8.74;100.00;99977.78;6163205;23;20013;-83
2022/03/02 01:43:27;;;;;;;20.38;8.90;;;;;;;8.60;100.00;99966.94;6190556;23;20089;-84
2022/03/02 01:45:54;;;;;;;23.40;9.95;;;;;;;8.50;100.00;99981.97;6163687;23;20009;-84
2022/03/02 01:48:20;;;;;;;29.38;10.63;;;;;;;8.72;100.00;99975.31;6138502;23;20017;-84
2022/03/02 01:50:45;;;;;;;23.85;10.20;;;;;;;8.51;100.00;99941.72;6164566;23;20019;-84
2022/03/02 01:53:11;;;;;;;27.38;10.32;;;;;;;8.68;100.00;99960.91;6164736;23;20021;-86
2022/03/02 01:55:37;;;;;;;29.08;10.95;;;;;;;8.74;100.00;99972.56;6141175;23;20036;-85
2022/03/02 01:58:03;;;;;;;22.75;10.75;;;;;;;8.54;100.00;99962.34;6191061;23;20084;-84
2022/03/02 02:00:31;;;;;;;28.58;11.30;;;;;;;8.68;100.00;99938.19;6139574;23;20467;-85
2022/03/02 02:03:00;;;;;;;28.48;11.05;;;;;;;8.90;100.00;99966.53;6139995;23;20102;-85
2022/03/02 02:05:29;;;;;;;25.23;11.02;;;;;;;8.73;100.00;99918.56;6140533;23;20024;-86
2022/03/02 02:07:55;;;;;;;27.30;11.77;;;;;;;8.32;100.00;99933.13;6141497;23;20012;-82
2022/03/02 02:10:22;;;;;;;26.60;11.88;;;;;;;8.81;100.00;99963.06;6190094;23;20020;-83
2022/03/02 02:12:48;;;;;;;29.00;12.98;;;;;;;8.15;100.00;99896.44;6139031;23;20048;-81
2022/03/02 02:15:15;;;;;;;28.80;13.50;;;;;;;8.39;100.00;99913.19;6161709;23;20024;-83
2022/03/02 02:17:41;;;;;;;31.73;12.50;;;;;;;8.52;100.00;99917.22;6188181;23;20016;-82
2022/03/02 02:20:09;;;;;;;29.00;13.38;;;;;;;8.65;100.00;99941.13;6188148;23;20009;-82
2022/03/02 02:22:43;;;;;;;36.92;15.20;;;;;;;8.67;100.00;99930.50;6162429;23;20017;-82
2022/03/02 02:25:11;;;;;;;29.27;13.18;;;;;;;8.50;100.00;99916.56;6165388;23;20013;-83
2022/03/02 02:27:38;;;;;;;52.45;15.15;;;;;;;8.03;100.00;99930.88;6166823;23;20013;-84
2022/03/02 02:30:05;;;;;;;42.70;14.77;;;;;;;8.32;100.00;99932.31;6167788;23;20012;-84
2022/03/02 02:32:31;;;;;;;46.10;15.10;;;;;;;8.54;100.00;99905.59;6143544;23;20013;-84
2022/03/02 02:34:59;;;;;;;38.40;13.90;;;;;;;8.49;100.00;99896.56;6169044;23;20009;-82
2022/03/02 02:37:25;;;;;;;36.03;16.45;;;;;;;8.74;100.00;99884.34;6199188;23;20012;-85
2022/03/02 02:39:58;;;;;;;47.08;16.30;;;;;;;8.33;100.00;99890.31;6169200;23;20009;-84
2022/03/02 02:42:24;;;;;;;55.90;16.67;;;;;;;8.60;100.00;99901.50;6167650;23;20013;-83
2022/03/02 02:44:50;;;;;;;131.85;19.08;;;;;;;8.79;100.00;99912.69;6166332;23;20451;-84
2022/03/02 02:47:16;;;;;;;49.17;15.98;;;;;;;8.83;100.00;99893.03;6165932;23;20012;-83
2022/03/02 02:49:41;;;;;;;136.52;19.38;;;;;;;8.74;100.00;99904.50;6188850;23;20019;-82
2022/03/02 02:52:07;;;;;;;63.20;16.58;;;;;;;8.47;100.00;99873.16;6189106;23;20065;-83
2022/03/02 02:54:33;;;;;;;79.50;16.15;;;;;;;8.40;100.00;99893.91;6161685;23;20104;-82
2022/03/02 02:56:59;;;;;;;45.60;12.82;;;;;;;8.63;100.00;99885.50;6188224;23;20016;-82
2022/03/02 02:59:24;;;;;;;48.97;13.70;;;;;;;8.62;100.00;99883.84;6161531;23;20013;-82
2022/03/02 03:01:50;;;;;;;46.65;12.10;;;;;;;8.72;100.00;99883.72;6136415;23;20027;-82
2022/03/02 03:04:16;;;;;;;83.63;14.63;;;;;;;9.07;100.00;99873.13;6161032;23;20017;-83
2022/03/02 03:06:41;;;;;;;55.03;13.23;;;;;;;8.77;100.00;99873.59;6161570;23;20336;-83
2022/03/02 03:09:08;;;;;;;42.97;12.75;;;;;;;8.80;100.00;99873.25;6163083;23;20001;-85
2022/03/02 03:11:38;;;;;;;38.65;12.98;;;;;;;8.85;100.00;99865.72;6163673;23;20009;-84
2022/03/02 03:14:09;;;;;;;56.92;12.23;;;;;;;8.85;100.00;99857.06;6190030;23;20009;-83
2022/03/02 03:16:34;;;;;;;239.88;24.17;;;;;;;8.76;100.00;99852.81;6139280;23;20075;-83
2022/03/02 03:19:00;;;;;;;139.57;18.30;;;;;;;8.66;100.00;99848.56;6189352;23;20032;-84
2022/03/02 03:21:26;;;;;;;204.10;22.38;;;;;;;8.74;100.00;99846.91;6166222;23;20013;-85
2022/03/02 03:23:52;;;;;;;281.80;27.35;;;;;;;8.34;100.00;99829.16;6163583;23;20041;-84
2022/03/02 03:26:17;;;;;;;115.18;16.70;;;;;;;8.63;100.00;99841.00;6190487;23;20020;-84
2022/03/02 03:28:43;;;;;;;312.10;28.10;;;;;;;8.40;100.00;99835.56;6165464;23;20013;-83
2022/03/02 03:31:10;;;;;;;513.97;41.03;;;;;;;8.73;100.00;99851.31;6136950;23;20020;-83
2022/03/02 03:33:36;;;;;;;448.30;35.92;;;;;;;8.62;100.00;99818.44;6136567;23;20040;-83
2022/03/02 03:36:02;;;;;;;252.50;27.70;;;;;;;8.68;100.00;99841.34;6138124;23;20452;-83
2022/03/02 03:38:28;;;;;;;292.65;27.42;;;;;;;8.82;100.00;99833.81;6187908;23;20012;-82
2022/03/02 03:40:53;;;;;;;114.63;16.83;;;;;;;8.92;100.00;99816.16;6162336;23;20016;-83
2022/03/02 03:43:19;;;;;;;242.43;24.63;;;;;;;8.90;100.00;99822.53;6137442;23;20017;-82
2022/03/02 03:45:45;;;;;;;99.65;15.32;;;;;;;9.08;100.00;99822.38;6187548;23;20429;-82
2022/03/02 03:48:11;;;;;;;409.38;34.78;;;;;;;8.97;100.00;99819.09;6162610;23;20025;-82
2022/03/02 03:50:37;;;;;;;485.58;39.85;;;;;;;9.03;100.00;99822.03;6190471;23;20013;-83
2022/03/02 03:53:03;;;;;;;206.77;22.10;;;;;;;9.06;100.00;99809.44;6192188;23;20009;-81
2022/03/02 03:55:28;;;;;;;106.60;17.95;;;;;;;8.80;100.00;99783.44;6164726;23;20095;-83
2022/03/02 03:57:55;;;;;;;505.58;40.22;;;;;;;8.63;100.00;99788.66;6162145;23;20009;-81
2022/03/02 04:00:22;;;;;;;109.10;18.38;;;;;;;8.81;100.00;99779.81;6161771;23;20041;-83
2022/03/02 04:02:47;;;;;;;218.15;22.42;;;;;;;9.06;100.00;99792.91;6136879;23;20020;-84
2022/03/02 04:05:15;;;;;;;423.70;35.97;;;;;;;8.97;100.00;99771.97;6162380;23;20388;-83
2022/03/02 04:07:41;;;;;;;403.52;36.03;;;;;;;8.97;100.00;99764.09;6161596;23;20065;-82
2022/03/02 04:10:08;;;;;;;608.47;54.03;;;;;;;8.79;100.00;99768.69;6187793;23;20016;-83
2022/03/02 04:12:35;;;;;;;136.45;20.58;;;;;;;9.14;100.00;99792.88;6189526;23;20045;-84
2022/03/02 04:15:00;;;;;;;58.50;14.88;;;;;;;9.05;100.00;99752.81;6163119;23;20017;-86
2022/03/02 04:17:26;;;;;;;142.90;19.65;;;;;;;9.08;100.00;99762.13;6152282;23;20015;-85
2022/03/02 04:19:52;;;;;;;91.10;16.67;;;;;;;9.05;100.00;99734.47;6139723;23;20021;-83
2022/03/02 04:22:18;;;;;;;478.50;40.97;;;;;;;9.06;100.00;99769.34;6163626;23;20023;-83
2022/03/02 04:24:43;;;;;;;46.28;15.43;;;;;;;9.05;100.00;99729.22;6161238;23;20088;-82
2022/03/02 04:27:09;;;;;;;394.77;34.75;;;;;;;8.96;100.00;99731.03;6137499;23;20021;-82
2022/03/02 04:29:35;;;;;;;200.00;22.85;;;;;;;9.20;100.00;99754.75;6162719;23;20128;-82
2022/03/02 04:32:00;;;;;;;356.58;35.17;;;;;;;9.03;100.00;99733.81;6188369;23;20064;-82
2022/03/02 04:34:26;;;;;;;162.38;21.58;;;;;;;8.95;100.00;99723.38;6187515;23;20009;-82
2022/03/02 04:36:53;;;;;;;43.28;14.07;;;;;;;9.17;100.00;99736.75;6161879;23;20025;-82
2022/03/02 04:39:19;;;;;;;411.55;35.70;;;;;;;9.25;100.00;99710.50;6161494;23;20037;-81
2022/03/02 04:41:45;;;;;;;42.22;13.38;;;;;;;9.08;100.00;99712.38;6161475;23;20028;-82
2022/03/02 04:44:11;;;;;;;126.57;19.42;;;;;;;9.07;100.00;99713.38;6162558;23;20013;-82
2022/03/02 04:46:37;;;;;;;161.95;20.33;;;;;;;9.28;100.00;99734.56;6137698;23;20021;-83
2022/03/02 04:49:10;;;;;;;221.70;25.77;;;;;;;9.13;100.00;99726.56;6189803;23;20017;-83
2022/03/02 04:51:39;;;;;;;;;;;;;;;9.34;100.00;99727.84;6139637;23;20017;-84
2022/03/02 04:54:06;;;;;;;37.90;13.15;;;;;;;9.22;100.00;99718.72;6164541;23;19932;-85
2022/03/02 04:56:32;;;;;;;303.02;28.70;;;;;;;9.34;100.00;99722.63;6163485;23;20013;-83
2022/03/02 04:59:01;;;;;;;269.45;28.38;;;;;;;9.09;100.00;99693.84;6189639;23;20020;-84
2022/03/02 05:01:28;;;;;;;371.95;37.97;;;;;;;9.15;100.00;99689.75;6138517;23;20140;-85
2022/03/02 05:03:54;;;;;;;173.55;24.50;;;;;;;9.26;100.00;99705.13;6163128;23;20067;-83
2022/03/02 05:06:20;;;;;;;179.43;27.92;;;;;;;8.94;100.00;99690.28;6162262;23;20451;-83
2022/03/02 05:08:46;;;;;;;236.85;33.30;;;;;;;9.05;100.00;99691.75;6188848;23;20005;-83
2022/03/02 05:11:11;;;;;;;158.35;30.10;;;;;;;8.92;100.00;99708.81;6136388;23;20346;-82
2022/03/02 05:13:37;;;;;;;128.52;30.02;;;;;;;9.07;100.00;99695.03;6161381;23;20013;-83
2022/03/02 05:16:03;;;;;;;128.48;32.08;;;;;;;9.10;100.00;99699.94;6186888;23;20013;-82
2022/03/02 05:18:29;;;;;;;202.20;36.63;;;;;;;8.99;100.00;99690.63;6136254;23;20436;-82
2022/03/02 05:20:55;;;;;;;354.75;47.95;;;;;;;8.88;100.00;99675.25;6137598;23;20024;-82
2022/03/02 05:23:21;;;;;;;156.57;36.92;;;;;;;8.93;100.00;99699.97;6162574;23;20087;-82
2022/03/02 05:25:47;;;;;;;327.80;46.58;;;;;;;9.02;100.00;99686.84;6189829;23;20092;-82
2022/03/02 05:28:12;;;;;;;505.85;59.20;;;;;;;8.94;100.00;99685.88;6190313;23;20020;-82
2022/03/02 05:30:38;;;;;;;147.90;35.78;;;;;;;9.07;100.00;99689.78;6188249;23;20040;-83
2022/03/02 05:33:04;;;;;;;483.92;59.80;;;;;;;8.73;100.00;99670.72;6160601;23;20339;-83
2022/03/02 05:35:30;;;;;;;106.70;34.95;;;;;;;9.02;100.00;99698.16;6161077;23;20020;-83
2022/03/02 05:37:55;;;;;;;490.27;58.15;;;;;;;9.00;100.00;99684.41;6162558;23;20009;-83
2022/03/02 05:40:21;;;;;;;378.27;53.80;;;;;;;9.02;100.00;99686.84;6163523;23;20016;-83
2022/03/02 05:42:47;;;;;;;288.90;44.22;;;;;;;9.13;100.00;99684.66;6163355;23;20024;-83
2022/03/02 05:45:13;;;;;;;115.35;36.95;;;;;;;9.17;100.00;99664.22;6164343;23;20016;-83
2022/03/02 05:47:40;;;;;;;161.90;44.10;;;;;;;9.29;100.00;99699.53;6138434;23;20017;-83
2022/03/02 05:50:07;;;;;;;398.35;58.83;;;;;;;9.07;100.00;99689.78;6164259;23;20012;-85
2022/03/02 05:52:33;;;;;;;324.58;54.58;;;;;;;8.98;100.00;99670.66;6170451;23;20297;-84
2022/03/02 05:54:59;;;;;;;255.25;51.72;;;;;;;9.02;100.00;99666.72;6171420;23;20088;-83
2022/03/02 05:57:25;;;;;;;207.15;47.85;;;;;;;8.81;100.00;99656.78;6169537;23;20012;-83
2022/03/02 05:59:52;;;;;;;171.07;46.50;;;;;;;8.97;100.00;99677.69;6162054;23;20013;-84
2022/03/02 06:02:17;;;;;;;305.75;55.33;;;;;;;9.12;100.00;99696.13;6190350;23;20028;-85
2022/03/02 06:04:43;;;;;;;216.88;49.25;;;;;;;8.90;100.00;99671.50;6144207;23;20020;-84
2022/03/02 06:07:09;;;;;;;381.23;60.17;;;;;;;8.97;100.00;99684.75;6168368;23;20009;-84
2022/03/02 06:09:35;;;;;;;191.50;50.80;;;;;;;8.96;100.00;99673.44;6192906;23;20005;-84
2022/03/02 06:12:01;;;;;;;209.55;51.00;;;;;;;8.79;100.00;99650.91;6165901;23;20020;-84
2022/03/02 06:14:27;;;;;;;156.02;49.40;;;;;;;9.16;100.00;99691.38;6164611;23;20009;-84
2022/03/02 06:16:53;;;;;;;186.32;52.20;;;;;;;9.18;100.00;99686.78;6140381;23;20021;-84
2022/03/02 06:19:19;;;;;;;207.45;52.42;;;;;;;8.97;100.00;99675.06;6190967;23;20020;-84
2022/03/02 06:21:47;;;;;;;191.13;53.63;;;;;;;9.10;100.00;99689.44;6191782;23;20384;-84
2022/03/02 06:24:14;;;;;;;162.10;51.03;;;;;;;8.99;100.00;99691.44;6142633;23;20024;-85
2022/03/02 06:26:41;;;;;;;228.52;55.35;;;;;;;8.76;100.00;99635.53;6193223;23;20013;-84
2022/03/02 06:29:07;;;;;;;250.27;56.90;;;;;;;9.08;100.00;99684.38;6166056;23;20017;-83
2022/03/02 06:31:33;;;;;;;353.48;61.08;;;;;;;8.94;100.00;99669.34;6166357;23;20355;-83
2022/03/02 06:34:00;;;;;;;152.23;48.80;;;;;;;9.08;100.00;99676.50;6197997;23;20008;-83
2022/03/02 06:36:26;;;;;;;179.25;51.70;;;;;;;9.14;100.00;99681.09;6148408;23;20009;-83
2022/03/02 06:38:53;;;;;;;221.38;56.08;;;;;;;8.81;100.00;99651.56;6176803;23;20340;-83
2022/03/02 06:41:29;;;;;;;174.60;52.45;;;;;;;8.99;100.00;99696.66;6171827;23;20005;-83
2022/03/02 06:44:04;;;;;;;417.50;66.07;;;;;;;8.93;100.00;99694.72;6173898;23;20009;-84
2022/03/02 06:46:42;;;;;;;377.17;65.68;;;;;;;8.91;100.00;99675.75;6151250;23;20020;-85
2022/03/02 06:49:16;;;;;;;262.05;56.47;;;;;;;8.77;100.00;99676.44;6151542;23;20021;-84
2022/03/02 06:51:44;;;;;;;159.82;51.10;;;;;;;9.04;100.00;99682.25;6172304;23;20040;-84
2022/03/02 06:54:12;;;;;;;159.98;52.00;;;;;;;9.04;100.00;99679.63;6124621;23;20071;-83
2022/03/02 06:56:50;;;;;;;260.02;55.22;;;;;;;8.89;100.00;99667.25;6169765;23;20064;-85
2022/03/02 06:59:29;;;;;;;167.80;52.20;;;;;;;9.06;100.00;99661.97;6171144;23;20021;-84
2022/03/02 07:02:00;;;;;;;213.43;53.50;;;;;;;9.33;100.00;99684.28;6166943;23;20009;-83
2022/03/02 07:04:27;;;;;;;359.48;65.05;;;;;;;9.25;100.00;99695.63;6145897;23;20016;-87
2022/03/02 07:06:55;;;;;;;438.17;68.95;;;;;;;9.06;100.00;99683.72;6145809;23;20047;-84
2022/03/02 07:09:23;;;;;;;233.07;56.55;;;;;;;8.99;100.00;99678.34;6174439;23;20012;-85
2022/03/02 07:11:55;;;;;;;235.43;55.72;;;;;;;8.99;100.00;99701.91;6177151;23;20016;-86
2022/03/02 07:14:40;;;;;;;143.63;47.88;;;;;;;9.17;100.00;99695.63;6173705;23;20021;-84
2022/03/02 07:17:07;;;;;;;202.25;58.35;;;;;;;9.05;100.00;99660.34;6177121;23;20013;-87
2022/03/02 07:19:33;;;;;;;169.30;51.85;;;;;;;9.21;100.00;99675.16;6151213;23;20020;-87
2022/03/02 07:22:06;;;;;;;280.50;55.30;;;;;;;9.18;100.00;99671.06;6150924;23;20017;-88
2022/03/02 07:24:41;;;;;;;205.18;52.22;;;;;;;9.18;100.00;99689.41;6148216;23;20023;-81
2022/03/02 07:27:06;;;;;;;243.77;58.70;;;;;;;9.17;100.00;99695.63;6196011;23;20016;-80
2022/03/02 07:29:35;;;;;;;190.15;54.03;;;;;;;9.16;100.00;99694.00;6195292;23;20017;-80
2022/03/02 07:32:02;;;;;;;159.40;52.15;;;;;;;9.12;100.00;99672.56;6170680;23;20398;-79
2022/03/02 07:34:30;;;;;;;277.45;54.83;;;;;;;9.35;100.00;99699.84;6200513;23;20313;-82
2022/03/02 07:36:59;;;;;;;269.40;57.58;;;;;;;9.36;100.00;99675.25;6146247;23;20016;-82
2022/03/02 07:39:25;;;;;;;242.80;57.75;;;;;;;9.29;100.00;99677.75;6167574;23;20392;-83
2022/03/02 07:41:51;;;;;;;161.10;52.17;;;;;;;9.15;100.00;99660.94;6172195;23;20013;-82
2022/03/02 07:44:17;;;;;;;134.27;47.60;;;;;;;9.37;100.00;99692.63;6173145;23;20020;-84
2022/03/02 07:46:43;;;;;;;199.27;54.65;;;;;;;9.26;100.00;99684.16;6171158;23;20005;-85
2022/03/02 07:49:09;;;;;;;159.77;49.60;;;;;;;9.18;100.00;99701.72;6169620;23;20017;-84
2022/03/02 07:51:38;;;;;;;165.32;52.53;;;;;;;9.06;100.00;99693.41;6145003;23;20019;-86
2022/03/02 07:54:05;;;;;;;170.23;52.40;;;;;;;9.32;100.00;99703.59;6168917;23;20027;-83
2022/03/02 07:56:32;;;;;;;131.85;44.95;;;;;;;9.46;100.00;99707.34;6163250;23;20028;-86
2022/03/02 07:59:03;;;;;;;144.85;48.55;;;;;;;9.29;100.00;99675.97;6138985;23;20096;-82
2022/03/02 08:01:32;;;;;;;192.27;55.08;;;;;;;9.26;100.00;99680.72;6164349;23;20016;-84
2022/03/02 08:04:04;;;;;;;174.57;51.80;;;;;;;9.46;100.00;99694.22;6163978;23;20021;-84
2022/03/02 08:06:31;;;;;;;188.55;53.67;;;;;;;9.56;100.00;99707.13;6141414;23;20019;-84
2022/03/02 08:09:02;;;;;;;143.23;50.85;;;;;;;9.36;100.00;99683.97;6164954;23;20013;-86
2022/03/02 08:11:30;;;;;;;215.18;55.95;;;;;;;9.47;100.00;99703.72;6190107;23;20032;-84
2022/03/02 08:13:57;;;;;;;211.65;56.58;;;;;;;9.45;100.00;99681.28;6162652;23;20021;-83
2022/03/02 08:16:25;;;;;;;178.35;54.22;;;;;;;9.26;100.00;99675.47;6138218;23;20351;-83
2022/03/02 08:18:50;;;;;;;206.52;51.33;;;;;;;9.27;100.00;99664.84;6161673;23;20100;-81
2022/03/02 08:21:20;;;;;;;388.35;72.57;;;;;;;9.49;100.00;99672.09;6188053;23;20035;-84
2022/03/02 08:23:50;;;;;;;161.80;51.45;;;;;;;9.52;100.00;99688.28;6162039;23;20422;-82
2022/03/02 08:26:21;;;;;;;160.07;55.38;;;;;;;9.50;100.00;99676.34;6187278;23;20131;-82
2022/03/02 08:28:53;;;;;;;313.83;57.70;;;;;;;9.42;100.00;99678.03;6185947;23;20103;-82
2022/03/02 08:31:24;;;;;;;234.85;58.60;;;;;;;9.59;100.00;99696.28;6160511;23;20060;-82
2022/03/02 08:33:51;;;;;;;471.00;75.78;;;;;;;9.34;100.00;99674.63;6159841;23;20008;-82
2022/03/02 08:36:23;;;;;;;161.48;50.85;;;;;;;9.58;100.00;99679.75;6159710;23;20009;-84
2022/03/02 08:38:53;;;;;;;303.98;64.30;;;;;;;9.58;100.00;99679.75;6136089;23;20387;-86
2022/03/02 08:41:20;;;;;;;449.15;73.03;;;;;;;9.64;100.00;99685.31;6160394;23;20016;-84
2022/03/02 08:43:47;;;;;;;196.98;52.80;;;;;;;9.56;100.00;99671.22;6186808;23;20055;-85
2022/03/02 08:46:13;;;;;;;151.18;49.97;;;;;;;9.47;100.00;99653.94;6160208;23;20087;-83
2022/03/02 08:48:40;;;;;;;128.57;48.40;;;;;;;9.56;100.00;99673.84;6183071;23;20347;-83
2022/03/02 08:51:06;;;;;;;241.93;60.10;;;;;;;9.66;100.00;99664.97;6157986;23;20502;-84
2022/03/02 08:53:33;;;;;;;134.43;46.75;;;;;;;9.72;100.00;99667.69;6184257;23;20021;-83
2022/03/02 08:56:06;;;;;;;125.80;44.08;;;;;;;9.78;100.00;99681.13;6185318;23;20008;-83
2022/03/02 08:58:32;;;;;;;110.88;40.03;;;;;;;9.67;100.00;99654.28;6161406;23;20051;-83
2022/03/02 09:01:02;;;;;;;138.25;46.80;;;;;;;9.45;100.00;99655.09;6159842;23;20015;-86
2022/03/02 09:03:31;;;;;;;115.68;41.38;;;;;;;9.76;100.00;99670.00;6158723;23;20091;-82
2022/03/02 09:05:57;;;;;;;112.53;41.90;;;;;;;10.07;100.00;99680.44;6134170;23;20047;-82
2022/03/02 09:08:23;;;;;;;110.47;38.55;;;;;;;10.25;100.00;99666.19;6185004;23;20013;-83
2022/03/02 09:10:49;;;;;;;96.75;37.95;;;;;;;10.31;100.00;99670.72;6159007;23;20013;-83
2022/03/02 09:13:14;;;;;;;102.95;38.38;;;;;;;10.28;100.00;99644.84;6133736;23;20032;-82
2022/03/02 09:15:40;;;;;;;76.30;31.13;;;;;;;10.47;100.00;99663.75;6184854;23;20013;-82
2022/03/02 09:18:07;;;;;;;85.45;34.80;;;;;;;10.33;100.00;99652.19;6185263;23;20036;-82
2022/03/02 09:20:33;;;;;;;80.20;33.45;;;;;;;10.68;100.00;99669.13;6158938;23;20017;-82
2022/03/02 09:23:06;;;;;;;82.78;34.25;;;;;;;10.70;100.00;99667.13;6184924;23;20087;-82
2022/03/02 09:25:32;;;;;;;;;;;;;;;11.49;100.00;99671.97;6185599;23;20039;-81
2022/03/02 09:27:58;;;;;;;75.05;31.15;;;;;;;11.29;100.00;99638.38;6134952;23;20243;-82
2022/03/02 09:30:24;;;;;;;81.18;33.85;;;;;;;10.88;100.00;99660.72;6185298;23;20009;-82
2022/03/02 09:32:53;;;;;;;72.43;33.58;;;;;;;10.49;100.00;99625.00;6135108;23;20032;-86
2022/03/02 09:35:27;;;;;;;74.13;32.97;;;;;;;10.41;100.00;99639.03;6161360;23;20017;-83
2022/03/02 09:38:07;;;;;;;69.57;30.67;;;;;;;10.05;100.00;99608.97;6187731;23;20009;-85
2022/03/02 09:40:37;;;;;;;74.82;33.90;;;;;;;10.42;100.00;99664.28;6163553;23;20371;-86
2022/03/02 09:43:08;;;;;;;73.78;30.52;;;;;;;10.18;100.00;99623.28;6159640;23;20013;-84
2022/03/02 09:45:34;;;;;;;80.25;32.00;;;;;;;10.20;100.00;99634.41;6135911;23;20032;-86
2022/03/02 09:48:03;;;;;;;78.78;33.08;;;;;;;10.12;100.00;99619.56;6187355;23;20403;-86
2022/03/02 09:50:35;;;;;;;75.43;32.53;;;;;;;10.43;100.00;99660.66;6161439;23;20013;-86
2022/03/02 09:53:08;;;;;;;74.47;31.25;;;;;;;10.38;100.00;99637.53;6163198;23;20012;-85
2022/03/02 09:55:36;;;;;;;70.53;30.40;;;;;;;10.06;100.00;99647.31;6136492;23;20009;-83
2022/03/02 09:58:03;;;;;;;75.60;30.35;;;;;;;10.15;100.00;99656.75;6136821;23;20490;-83
2022/03/02 10:00:29;;;;;;;73.38;31.17;;;;;;;10.19;100.00;99665.09;6136944;23;20021;-82
2022/03/02 10:03:00;;;;;;;72.93;30.60;;;;;;;10.08;100.00;99649.75;6163808;23;20088;-84
2022/03/02 10:05:35;;;;;;;71.07;30.42;;;;;;;10.35;100.00;99666.75;6191493;23;20009;-86
2022/03/02 10:08:03;;;;;;;70.57;29.92;;;;;;;10.33;100.00;99663.50;6140745;23;20017;-82
2022/03/02 10:10:33;;;;;;;73.78;29.10;;;;;;;9.95;100.00;99639.84;6139444;23;20065;-84
2022/03/02 10:13:03;;;;;;;69.72;29.83;;;;;;;10.26;100.00;99649.47;6139473;23;20091;-87
2022/03/02 10:15:30;;;;;;;69.40;30.60;;;;;;;10.06;100.00;99655.19;6188433;23;20360;-85
2022/03/02 10:18:02;;;;;;;68.05;29.70;;;;;;;9.84;100.00;99625.34;6190574;23;20067;-83
2022/03/02 10:20:34;;;;;;;71.40;30.25;;;;;;;9.99;100.00;99625.41;6188049;23;20016;-85
2022/03/02 10:23:20;;;;;;;72.97;30.90;;;;;;;10.19;100.00;99643.28;6162894;23;20013;-84
2022/03/02 10:25:46;;;;;;;71.80;31.40;;;;;;;10.27;100.00;99649.28;6138808;23;20016;-86
2022/03/02 10:28:20;;;;;;;78.30;31.58;;;;;;;10.15;100.00;99624.47;6163084;23;20372;-85
2022/03/02 10:30:55;;;;;;;80.57;32.05;;;;;;;10.09;100.00;99636.47;6134740;23;20091;-85
2022/03/02 10:33:23;;;;;;;70.88;32.55;;;;;;;10.17;100.00;99621.66;6186393;23;20016;-85
2022/03/02 10:35:57;;;;;;;68.93;28.55;;;;;;;10.38;100.00;99634.91;6186279;23;20333;-86
2022/03/02 10:38:38;;;;;;;72.18;30.92;;;;;;;10.46;100.00;99644.53;6161102;23;20020;-84
2022/03/02 10:41:07;;;;;;;71.82;31.08;;;;;;;10.45;100.00;99632.41;6159633;23;20052;-85
2022/03/02 10:43:48;;;;;;;70.63;29.98;;;;;;;10.63;100.00;99636.50;6184382;23;20012;-84
2022/03/02 10:46:20;;;;;;;68.57;31.95;;;;;;;10.62;100.00;99632.25;6186007;23;20056;-84
2022/03/02 10:49:00;;;;;;;59.17;27.85;;;;;;;10.91;100.00;99639.31;6134938;23;20041;-84
2022/03/02 10:51:29;;;;;;;77.55;31.70;;;;;;;11.02;100.00;99630.16;6159951;23;20095;-85
2022/03/02 10:53:56;;;;;;;59.05;29.80;;;;;;;11.21;100.00;99633.22;6186836;23;20056;-83
2022/03/02 10:56:27;;;;;;;64.15;29.58;;;;;;;11.14;100.00;99617.38;6186041;23;20021;-83
2022/03/02 10:58:54;;;;;;;72.47;33.88;;;;;;;11.29;100.00;99623.44;6185026;23;20072;-83
2022/03/02 11:01:21;;;;;;;75.53;35.35;;;;;;;11.16;100.00;99619.84;6185779;23;20110;-84
2022/03/02 11:03:47;;;;;;;67.38;32.88;;;;;;;11.01;100.00;99612.78;6158141;23;20013;-82
2022/03/02 11:06:14;;;;;;;63.40;31.95;;;;;;;11.08;100.00;99613.66;6185296;23;20017;-81
2022/03/02 11:08:42;;;;;;;65.13;31.88;;;;;;;11.18;100.00;99613.38;6160562;23;20417;-81
2022/03/02 11:11:10;;;;;;;62.90;31.00;;;;;;;11.28;100.00;99613.91;6186575;23;20463;-82
2022/03/02 11:13:37;;;;;;;62.28;30.35;;;;;;;11.09;100.00;99601.38;6159284;23;20035;-83